createdAt,value
2022-10-05T00:01:47.331Z,4.22
2022-10-05T00:04:16.903Z,4.21
2022-10-05T00:06:45.952Z,4.23
2022-10-05T00:09:19.053Z,4.24
2022-10-05T00:11:46.233Z,4.39
2022-10-05T00:14:27.727Z,4.26
2022-10-05T00:16:55.638Z,4.17
2022-10-05T00:19:30.973Z,4.11
2022-10-05T00:22:19.699Z,4.27
2022-10-05T00:24:48.101Z,4.26
2022-10-05T00:27:21.412Z,4.14
2022-10-05T00:30:20.035Z,4.15
2022-10-05T00:32:47.074Z,3.43
2022-10-05T00:35:15.391Z,3.95
2022-10-05T00:37:42.097Z,4.06
2022-10-05T00:40:17.358Z,3.99
2022-10-05T00:43:06.836Z,4.03
2022-10-05T00:45:42.999Z,4.01
2022-10-05T00:48:37.096Z,3.99
2022-10-05T00:51:20.882Z,3.98
2022-10-05T00:54:20.695Z,3.97
2022-10-05T00:57:05.483Z,3.90
2022-10-05T00:59:53.145Z,3.93
2022-10-05T01:02:36.499Z,3.88
2022-10-05T01:05:15.769Z,3.85
2022-10-05T01:07:58.717Z,3.78
2022-10-05T01:11:01.335Z,3.84
2022-10-05T01:13:53.435Z,3.85
2022-10-05T01:16:31.318Z,3.74
2022-10-05T01:18:57.714Z,3.76
2022-10-05T01:21:32.176Z,3.61
2022-10-05T01:24:22.366Z,3.78
2022-10-05T01:27:10.325Z,3.81
2022-10-05T01:30:06.501Z,3.81
2022-10-05T01:33:01.150Z,3.76
2022-10-05T01:35:53.847Z,3.80
2022-10-05T01:38:32.617Z,3.60
2022-10-05T01:41:19.767Z,3.50
2022-10-05T01:43:52.353Z,3.74
2022-10-05T01:46:30.619Z,3.73
2022-10-05T01:49:04.131Z,3.71
2022-10-05T01:51:33.505Z,3.74
2022-10-05T01:54:28.101Z,3.70
2022-10-05T01:57:00.802Z,3.43
2022-10-05T02:00:12.525Z,3.64
2022-10-05T02:02:48.309Z,3.58
2022-10-05T02:05:28.805Z,3.39
2022-10-05T02:08:01.841Z,3.36
2022-10-05T02:10:37.352Z,3.28
2022-10-05T02:13:13.093Z,3.29
2022-10-05T02:15:46.227Z,3.50
2022-10-05T02:18:19.727Z,3.28
2022-10-05T02:20:47.777Z,3.32
2022-10-05T02:23:26.966Z,3.32
2022-10-05T02:25:56.249Z,3.39
2022-10-05T02:28:29.476Z,3.23
2022-10-05T02:31:06.044Z,3.57
2022-10-05T02:33:33.810Z,3.32
2022-10-05T02:36:18.506Z,3.39
2022-10-05T02:39:16.072Z,3.34
2022-10-05T02:41:48.659Z,3.26
2022-10-05T02:44:40.592Z,3.27
2022-10-05T02:47:18.197Z,3.12
2022-10-05T02:49:58.146Z,3.26
2022-10-05T02:53:18.381Z,3.27
2022-10-05T02:56:07.139Z,3.28
2022-10-05T02:58:53.375Z,3.09
2022-10-05T03:01:32.204Z,3.19
2022-10-05T03:04:12.697Z,3.14
2022-10-05T03:06:51.585Z,3.07
2022-10-05T03:09:22.590Z,3.30
2022-10-05T03:12:27.473Z,3.13
2022-10-05T03:15:25.207Z,3.26
2022-10-05T03:18:11.190Z,3.18
2022-10-05T03:20:37.694Z,3.27
2022-10-05T03:23:09.648Z,3.32
2022-10-05T03:25:54.355Z,3.24
2022-10-05T03:28:32.332Z,3.09
2022-10-05T03:31:13.095Z,3.08
2022-10-05T03:33:43.607Z,2.95
2022-10-05T03:36:26.445Z,2.87
2022-10-05T03:39:08.039Z,3.14
2022-10-05T03:42:09.035Z,3.14
2022-10-05T03:44:56.815Z,3.09
2022-10-05T03:47:39.319Z,2.98
2022-10-05T03:50:44.670Z,3.31
2022-10-05T03:53:18.215Z,3.19
2022-10-05T03:55:53.693Z,2.83
2022-10-05T03:58:52.981Z,3.10
2022-10-05T04:01:25.349Z,3.08
2022-10-05T04:03:57.861Z,3.13
2022-10-05T04:06:27.925Z,3.11
2022-10-05T04:09:01.272Z,2.86
2022-10-05T04:11:38.066Z,2.86
2022-10-05T04:14:07.131Z,3.06
2022-10-05T04:16:51.441Z,2.98
2022-10-05T04:19:22.181Z,2.98
2022-10-05T04:22:25.310Z,2.93
2022-10-05T04:25:17.870Z,2.92
2022-10-05T04:27:55.126Z,2.69
2022-10-05T04:30:44.808Z,2.89
2022-10-05T04:33:13.622Z,3.00
2022-10-05T04:36:11.741Z,2.99
2022-10-05T04:39:03.674Z,3.04
2022-10-05T04:42:00.384Z,3.10
2022-10-05T04:45:11.499Z,3.02
2022-10-05T04:48:08.357Z,2.96
2022-10-05T04:50:48.949Z,2.83
2022-10-05T04:53:30.437Z,2.65
2022-10-05T04:56:07.995Z,2.75
2022-10-05T04:59:02.681Z,2.92
2022-10-05T05:02:04.285Z,2.87
2022-10-05T05:04:52.253Z,2.75
2022-10-05T05:08:06.984Z,2.89
2022-10-05T05:10:58.069Z,3.00
2022-10-05T05:14:05.324Z,2.96
2022-10-05T05:16:37.584Z,2.76
2022-10-05T05:19:25.472Z,2.98
2022-10-05T05:21:56.859Z,2.65
2022-10-05T05:24:33.216Z,2.72
2022-10-05T05:27:02.579Z,2.95
2022-10-05T05:29:38.003Z,2.85
2022-10-05T05:32:12.969Z,2.90
2022-10-05T05:34:54.614Z,2.97
2022-10-05T05:37:56.525Z,2.76
2022-10-05T05:40:32.001Z,2.69
2022-10-05T05:43:15.253Z,2.90
2022-10-05T05:45:45.943Z,2.89
2022-10-05T05:48:21.513Z,3.02
2022-10-05T05:50:58.283Z,3.00
2022-10-05T05:53:39.919Z,3.10
2022-10-05T05:56:14.842Z,3.18
2022-10-05T05:59:06.430Z,3.10
2022-10-05T06:01:43.587Z,3.23
2022-10-05T06:04:19.081Z,3.25
2022-10-05T06:06:51.857Z,3.49
2022-10-05T06:09:51.241Z,3.54
2022-10-05T06:12:29.534Z,3.58
2022-10-05T06:15:05.310Z,3.80
2022-10-05T06:17:48.032Z,3.66
2022-10-05T06:20:43.422Z,3.99
2022-10-05T06:23:16.887Z,3.91
2022-10-05T06:26:10.988Z,4.15
2022-10-05T06:28:37.936Z,4.11
2022-10-05T06:31:15.192Z,4.50
2022-10-05T06:33:52.137Z,4.61
2022-10-05T06:36:27.165Z,4.74
2022-10-05T06:39:10.837Z,4.76
2022-10-05T06:42:05.182Z,5.04
2022-10-05T06:44:43.586Z,5.13
2022-10-05T06:47:28.138Z,5.46
2022-10-05T06:50:16.708Z,5.53
2022-10-05T06:52:52.315Z,5.69
2022-10-05T06:55:44.477Z,5.43
2022-10-05T06:58:36.721Z,5.92
2022-10-05T07:01:04.829Z,6.02
2022-10-05T07:03:41.449Z,6.35
2022-10-05T07:06:21.262Z,6.39
2022-10-05T07:09:09.231Z,6.67
2022-10-05T07:12:13.271Z,6.93
2022-10-05T07:14:58.709Z,7.12
2022-10-05T07:17:53.027Z,7.16
2022-10-05T07:20:48.337Z,7.49
2022-10-05T07:23:30.898Z,7.72
2022-10-05T07:26:06.665Z,7.91
2022-10-05T07:28:52.362Z,8.05
2022-10-05T07:31:49.174Z,8.13
2022-10-05T07:34:26.461Z,8.11
2022-10-05T07:37:20.272Z,8.25
2022-10-05T07:40:18.044Z,8.67
2022-10-05T07:42:52.329Z,8.73
2022-10-05T07:45:33.834Z,8.60
2022-10-05T07:48:21.064Z,9.15
2022-10-05T07:51:06.475Z,9.47
2022-10-05T07:53:36.755Z,9.55
2022-10-05T07:56:16.183Z,9.52
2022-10-05T07:59:01.630Z,10.01
2022-10-05T08:01:31.745Z,10.19
2022-10-05T08:04:10.250Z,10.65
2022-10-05T08:06:54.071Z,10.59
2022-10-05T08:09:36.310Z,10.77
2022-10-05T08:12:30.907Z,10.99
2022-10-05T08:15:20.495Z,10.99
2022-10-05T08:18:05.550Z,11.30
2022-10-05T08:21:01.575Z,11.29
2022-10-05T08:23:33.859Z,11.58
2022-10-05T08:26:14.964Z,11.64
2022-10-05T08:28:46.982Z,11.92
2022-10-05T08:31:27.014Z,11.88
2022-10-05T08:34:31.750Z,12.20
2022-10-05T08:37:06.978Z,12.31
2022-10-05T08:39:49.918Z,12.50
2022-10-05T08:42:25.377Z,12.57
2022-10-05T08:45:00.087Z,12.61
2022-10-05T08:47:38.626Z,12.85
2022-10-05T08:50:46.875Z,13.21
2022-10-05T08:53:20.544Z,13.27
2022-10-05T08:56:32.190Z,13.33
2022-10-05T08:59:18.040Z,13.35
2022-10-05T09:01:58.570Z,13.24
2022-10-05T09:04:40.051Z,13.55
2022-10-05T09:07:18.553Z,13.73
2022-10-05T09:09:51.034Z,13.90
2022-10-05T09:12:51.474Z,14.19
2022-10-05T09:15:33.654Z,14.20
2022-10-05T09:18:14.099Z,14.36
2022-10-05T09:20:55.214Z,14.61
2022-10-05T09:23:42.787Z,14.74
2022-10-05T09:26:40.368Z,14.90
2022-10-05T09:29:22.027Z,15.10
2022-10-05T09:32:10.787Z,15.34
2022-10-05T09:35:15.034Z,15.48
2022-10-05T09:37:44.598Z,15.54
2022-10-05T09:40:29.779Z,15.67
2022-10-05T09:43:22.924Z,16.08
2022-10-05T09:45:55.603Z,16.26
2022-10-05T09:48:40.878Z,16.38
2022-10-05T09:51:46.325Z,16.91
2022-10-05T09:54:34.861Z,17.02
2022-10-05T09:57:42.253Z,17.35
2022-10-05T10:00:21.892Z,17.46
2022-10-05T10:03:16.101Z,17.71
2022-10-05T10:06:05.403Z,18.06
2022-10-05T10:08:57.988Z,18.11
2022-10-05T10:12:02.362Z,18.39
2022-10-05T10:14:49.485Z,18.64
2022-10-05T10:17:18.753Z,18.63
2022-10-05T10:20:23.597Z,18.67
2022-10-05T10:23:14.073Z,18.72
2022-10-05T10:26:15.890Z,19.25
2022-10-05T10:29:00.457Z,19.32
2022-10-05T10:31:39.095Z,19.28
2022-10-05T10:34:42.703Z,19.27
2022-10-05T10:37:34.359Z,19.27
2022-10-05T10:40:35.004Z,19.37
2022-10-05T10:43:07.486Z,19.41
2022-10-05T10:46:09.317Z,19.08
2022-10-05T10:48:51.325Z,18.86
2022-10-05T10:51:43.069Z,19.12
2022-10-05T10:54:23.298Z,19.32
2022-10-05T10:57:11.400Z,19.35
2022-10-05T10:59:43.782Z,19.69
2022-10-05T11:02:37.387Z,19.43
2022-10-05T11:05:36.142Z,19.43
2022-10-05T11:08:18.295Z,19.84
2022-10-05T11:10:59.885Z,19.69
2022-10-05T11:14:02.957Z,19.52
2022-10-05T11:16:57.312Z,19.43
2022-10-05T11:19:59.609Z,19.85
2022-10-05T11:22:50.228Z,19.73
2022-10-05T11:25:27.682Z,19.71
2022-10-05T11:27:55.115Z,19.82
2022-10-05T11:30:40.055Z,19.59
2022-10-05T11:33:37.519Z,19.57
2022-10-05T11:36:03.794Z,19.65
2022-10-05T11:38:49.447Z,19.75
2022-10-05T11:41:53.543Z,19.93
2022-10-05T11:44:29.270Z,20.22
2022-10-05T11:47:21.578Z,20.14
2022-10-05T11:50:20.343Z,20.08
2022-10-05T11:53:01.691Z,19.85
2022-10-05T11:55:37.366Z,20.27
2022-10-05T11:58:24.077Z,20.32
2022-10-05T12:00:59.834Z,20.26
2022-10-05T12:03:43.237Z,20.66
2022-10-05T12:06:25.587Z,20.63
2022-10-05T12:09:30.673Z,20.67
2022-10-05T12:12:22.971Z,20.58
2022-10-05T12:15:12.059Z,20.73
2022-10-05T12:17:58.189Z,20.58
2022-10-05T12:20:38.841Z,20.73
2022-10-05T12:23:21.174Z,20.96
2022-10-05T12:25:56.650Z,20.73
2022-10-05T12:28:33.076Z,20.83
2022-10-05T12:31:15.525Z,20.51
2022-10-05T12:33:50.955Z,20.87
2022-10-05T12:36:19.653Z,20.56
2022-10-05T12:39:05.122Z,20.64
2022-10-05T12:41:49.711Z,20.57
2022-10-05T12:44:18.913Z,20.36
2022-10-05T12:46:54.691Z,20.70
2022-10-05T12:49:21.020Z,20.70
2022-10-05T12:52:06.399Z,20.68
2022-10-05T12:54:53.545Z,21.06
2022-10-05T12:57:37.419Z,20.67
2022-10-05T13:00:10.034Z,20.87
2022-10-05T13:02:46.847Z,21.17
2022-10-05T13:05:23.502Z,21.12
2022-10-05T13:08:01.740Z,21.42
2022-10-05T13:10:35.255Z,21.42
2022-10-05T13:13:01.565Z,21.41
2022-10-05T13:15:49.875Z,21.45
2022-10-05T13:18:54.304Z,21.67
2022-10-05T13:21:26.880Z,21.51
2022-10-05T13:24:29.916Z,21.54
2022-10-05T13:27:08.408Z,21.68
2022-10-05T13:29:51.046Z,22.02
2022-10-05T13:32:25.211Z,22.08
2022-10-05T13:35:02.610Z,21.80
2022-10-05T13:37:39.326Z,21.85
2022-10-05T13:40:33.674Z,21.92
2022-10-05T13:43:06.154Z,21.70
2022-10-05T13:45:51.213Z,21.66
2022-10-05T13:48:20.558Z,21.60
2022-10-05T13:51:05.249Z,21.77
2022-10-05T13:53:55.988Z,21.60
2022-10-05T13:56:33.437Z,21.85
2022-10-05T13:59:25.130Z,22.07
2022-10-05T14:02:06.818Z,21.74
2022-10-05T14:04:47.904Z,21.91
2022-10-05T14:07:31.128Z,21.98
2022-10-05T14:09:59.546Z,21.80
2022-10-05T14:12:27.367Z,21.89
2022-10-05T14:14:56.898Z,21.78
2022-10-05T14:17:43.777Z,21.27
2022-10-05T14:20:36.440Z,21.55
2022-10-05T14:23:18.520Z,21.73
2022-10-05T14:25:53.911Z,21.98
2022-10-05T14:28:33.715Z,21.78
2022-10-05T14:31:05.963Z,21.13
2022-10-05T14:33:36.251Z,20.43
2022-10-05T14:36:03.902Z,20.26
2022-10-05T14:38:49.630Z,20.38
2022-10-05T14:41:27.259Z,20.27
2022-10-05T14:44:13.197Z,20.74
2022-10-05T14:46:52.155Z,20.49
2022-10-05T14:49:29.047Z,20.64
2022-10-05T14:51:56.911Z,20.19
2022-10-05T14:54:32.443Z,20.14
2022-10-05T14:57:14.105Z,20.06
2022-10-05T14:59:47.945Z,20.00
2022-10-05T15:02:53.159Z,20.26
2022-10-05T15:05:31.592Z,19.98
2022-10-05T15:08:20.965Z,20.56
2022-10-05T15:10:50.235Z,20.11
2022-10-05T15:13:24.067Z,20.27
2022-10-05T15:15:56.519Z,20.06
2022-10-05T15:18:39.481Z,20.21
2022-10-05T15:21:48.601Z,20.12
2022-10-05T15:24:17.977Z,20.28
2022-10-05T15:26:54.455Z,20.25
2022-10-05T15:29:36.180Z,20.04
2022-10-05T15:32:30.149Z,19.76
2022-10-05T15:35:10.708Z,19.69
2022-10-05T15:37:47.599Z,19.79
2022-10-05T15:40:50.855Z,19.65
2022-10-05T15:43:20.921Z,19.90
2022-10-05T15:46:10.240Z,19.58
2022-10-05T15:48:54.017Z,19.48
2022-10-05T15:51:45.143Z,19.34
2022-10-05T15:54:42.984Z,19.45
2022-10-05T15:57:32.668Z,18.95
2022-10-05T16:00:11.905Z,19.02
2022-10-05T16:02:48.146Z,18.62
2022-10-05T16:05:43.765Z,18.74
2022-10-05T16:08:51.421Z,18.02
2022-10-05T16:11:25.259Z,17.79
2022-10-05T16:14:15.457Z,17.86
2022-10-05T16:16:58.952Z,17.93
2022-10-05T16:19:34.609Z,17.84
2022-10-05T16:22:47.303Z,17.48
2022-10-05T16:25:22.163Z,17.19
2022-10-05T16:28:05.192Z,16.84
2022-10-05T16:30:42.184Z,16.61
2022-10-05T16:33:14.182Z,16.29
2022-10-05T16:35:53.810Z,16.02
2022-10-05T16:38:53.631Z,16.05
2022-10-05T16:41:24.764Z,15.63
2022-10-05T16:44:01.691Z,15.30
2022-10-05T16:46:59.388Z,15.21
2022-10-05T16:50:10.880Z,14.91
2022-10-05T16:52:40.085Z,14.80
2022-10-05T16:55:14.016Z,14.78
2022-10-05T16:57:48.484Z,14.47
2022-10-05T17:00:18.266Z,14.31
2022-10-05T17:03:30.062Z,14.28
2022-10-05T17:06:16.501Z,13.85
2022-10-05T17:09:18.298Z,13.72
2022-10-05T17:11:57.699Z,13.69
2022-10-05T17:14:53.830Z,13.64
2022-10-05T17:17:43.149Z,13.38
2022-10-05T17:20:17.409Z,13.12
2022-10-05T17:23:02.086Z,13.06
2022-10-05T17:25:44.665Z,13.17
2022-10-05T17:28:37.629Z,13.07
2022-10-05T17:31:21.853Z,12.96
2022-10-05T17:34:16.832Z,12.87
2022-10-05T17:36:51.173Z,12.66
2022-10-05T17:39:22.605Z,12.70
2022-10-05T17:41:49.646Z,12.59
2022-10-05T17:44:24.804Z,12.66
2022-10-05T17:46:57.135Z,12.53
2022-10-05T17:50:17.635Z,12.29
2022-10-05T17:53:03.790Z,12.32
2022-10-05T17:55:33.927Z,12.44
2022-10-05T17:58:23.391Z,12.15
2022-10-05T18:00:59.809Z,12.08
2022-10-05T18:03:49.396Z,11.45
2022-10-05T18:06:28.365Z,11.97
2022-10-05T18:09:20.915Z,12.13
2022-10-05T18:12:08.986Z,11.96
2022-10-05T18:14:57.301Z,12.02
2022-10-05T18:17:46.384Z,11.69
2022-10-05T18:20:28.428Z,11.83
2022-10-05T18:23:10.135Z,11.96
2022-10-05T18:26:09.058Z,11.78
2022-10-05T18:28:46.505Z,11.37
2022-10-05T18:31:18.854Z,11.57
2022-10-05T18:34:07.618Z,11.76
2022-10-05T18:36:56.470Z,11.40
2022-10-05T18:39:40.526Z,11.25
2022-10-05T18:42:36.061Z,10.92
2022-10-05T18:45:39.530Z,10.63
2022-10-05T18:48:35.453Z,10.44
2022-10-05T18:51:32.878Z,10.33
2022-10-05T18:54:36.989Z,10.42
2022-10-05T18:57:35.832Z,10.58
2022-10-05T19:00:11.239Z,10.78
2022-10-05T19:03:03.641Z,10.70
2022-10-05T19:05:47.439Z,10.55
2022-10-05T19:08:36.197Z,10.14
2022-10-05T19:11:24.143Z,10.31
2022-10-05T19:14:05.440Z,10.50
2022-10-05T19:16:51.522Z,10.29
2022-10-05T19:19:44.292Z,10.29
2022-10-05T19:22:31.685Z,10.26
2022-10-05T19:25:23.107Z,10.14
2022-10-05T19:28:15.255Z,10.09
2022-10-05T19:30:56.897Z,9.95
2022-10-05T19:33:42.235Z,9.77
2022-10-05T19:36:29.258Z,9.86
2022-10-05T19:39:06.701Z,9.72
2022-10-05T19:42:05.076Z,9.67
2022-10-05T19:44:53.358Z,9.64
2022-10-05T19:47:25.761Z,9.53
2022-10-05T19:49:52.125Z,9.46
2022-10-05T19:52:22.155Z,9.40
2022-10-05T19:55:02.085Z,9.01
2022-10-05T19:57:28.740Z,9.28
2022-10-05T19:59:58.257Z,9.34
2022-10-05T20:02:28.884Z,9.13
2022-10-05T20:05:06.530Z,9.24
2022-10-05T20:07:34.385Z,8.97
2022-10-05T20:10:29.113Z,9.04
2022-10-05T20:12:58.752Z,8.75
2022-10-05T20:15:45.344Z,8.93
2022-10-05T20:19:01.609Z,8.73
2022-10-05T20:21:50.362Z,8.88
2022-10-05T20:24:18.314Z,8.89
2022-10-05T20:27:04.854Z,9.04
2022-10-05T20:29:32.561Z,9.00
2022-10-05T20:32:00.250Z,8.75
2022-10-05T20:34:31.817Z,8.73
2022-10-05T20:36:58.606Z,8.68
2022-10-05T20:39:24.986Z,8.48
2022-10-05T20:41:51.475Z,8.97
2022-10-05T20:44:17.874Z,8.85
2022-10-05T20:46:46.269Z,8.97
2022-10-05T20:49:13.034Z,8.93
2022-10-05T20:51:40.178Z,9.09
2022-10-05T20:54:08.045Z,9.20
2022-10-05T20:56:34.952Z,9.31
2022-10-05T20:59:01.395Z,9.34
2022-10-05T21:01:28.917Z,9.40
2022-10-05T21:03:55.833Z,9.26
2022-10-05T21:06:22.514Z,9.64
2022-10-05T21:08:51.331Z,9.64
2022-10-05T21:11:17.796Z,9.64
2022-10-05T21:13:46.367Z,9.77
2022-10-05T21:16:18.629Z,10.01
2022-10-05T21:18:47.481Z,10.01
2022-10-05T21:21:15.394Z,9.82
2022-10-05T21:23:41.947Z,9.83
2022-10-05T21:26:08.467Z,9.75
2022-10-05T21:28:34.929Z,9.60
2022-10-05T21:31:01.461Z,9.67
2022-10-05T21:33:28.279Z,9.69
2022-10-05T21:35:54.864Z,9.75
2022-10-05T21:38:21.460Z,9.63
2022-10-05T21:40:47.881Z,9.63
2022-10-05T21:43:14.403Z,9.58
2022-10-05T21:45:42.851Z,9.22
2022-10-05T21:48:10.025Z,9.31
2022-10-05T21:50:37.834Z,9.21
2022-10-05T21:53:06.497Z,9.04
2022-10-05T21:55:35.783Z,8.78
2022-10-05T21:58:03.578Z,8.86
2022-10-05T22:00:30.615Z,8.57
2022-10-05T22:02:57.030Z,8.50
2022-10-05T22:05:23.458Z,8.57
2022-10-05T22:07:49.937Z,8.93
2022-10-05T22:10:16.452Z,8.36
2022-10-05T22:12:42.889Z,8.49
2022-10-05T22:15:09.688Z,7.93
2022-10-05T22:17:36.345Z,8.32
2022-10-05T22:20:03.639Z,8.15
2022-10-05T22:22:30.102Z,8.40
2022-10-05T22:24:56.643Z,7.97
2022-10-05T22:27:24.711Z,8.32
2022-10-05T22:29:51.624Z,8.17
2022-10-05T22:32:18.178Z,8.13
2022-10-05T22:34:44.959Z,7.93
2022-10-05T22:37:15.862Z,7.81
2022-10-05T22:39:43.017Z,7.73
2022-10-05T22:42:09.802Z,7.67
2022-10-05T22:44:36.350Z,7.87
2022-10-05T22:47:03.886Z,7.83
2022-10-05T22:49:30.267Z,7.94
2022-10-05T22:51:56.680Z,7.94
2022-10-05T22:54:31.058Z,7.93
2022-10-05T22:56:59.751Z,7.99
2022-10-05T22:59:26.144Z,8.18
2022-10-05T23:01:52.749Z,7.99
2022-10-05T23:04:19.289Z,7.99
2022-10-05T23:06:45.690Z,7.82
2022-10-05T23:09:12.090Z,7.95
2022-10-05T23:11:38.507Z,7.96
2022-10-05T23:14:04.957Z,7.96
2022-10-05T23:16:31.703Z,8.21
2022-10-05T23:18:59.066Z,8.14
2022-10-05T23:21:28.844Z,7.72
2022-10-05T23:23:55.273Z,8.05
2022-10-05T23:26:24.139Z,8.24
2022-10-05T23:28:51.056Z,8.15
2022-10-05T23:31:27.098Z,8.24
2022-10-05T23:33:53.577Z,8.16
2022-10-05T23:36:22.532Z,8.21
2022-10-05T23:38:49.454Z,7.88
2022-10-05T23:41:16.270Z,7.98
2022-10-05T23:43:43.610Z,8.14
2022-10-05T23:46:10.406Z,8.12
2022-10-05T23:48:39.714Z,7.90
2022-10-05T23:51:08.858Z,7.83
2022-10-05T23:53:35.535Z,7.83
2022-10-05T23:56:02.397Z,7.81
2022-10-05T23:58:29.146Z,7.61
